Time;durP1;ratioP1;P1;durP2;ratioP2;P2;SDS_P1;SDS_P2;PMS_P1;PMS_P2;Temp;Humidity;BMP_temperature;BMP_pressure;BME280_temperature;BME280_humidity;BME280_pressure;Samples;Min_cycle;Max_cycle;Signal;HPM_P1;HPM_P2
2023/10/25 12:26:21;;;;;;;6.30;4.90;;;;;;;11.11;98.50;99302.17;105694;1285;612429;-67
2023/10/25 12:28:49;;;;;;;6.70;6.00;;;;;;;11.34;97.64;99289.42;107173;1267;165361;-67
2023/10/25 12:31:15;;;;;;;7.50;5.70;;;;;;;11.34;97.34;99284.56;107413;1266;58996;-67
2023/10/25 12:33:42;;;;;;;6.00;5.40;;;;;;;11.32;97.08;99282.77;107351;1270;71271;-66
2023/10/25 12:36:09;;;;;;;5.50;4.90;;;;;;;11.31;96.99;99277.70;107369;1270;73918;-67
2023/10/25 12:38:36;;;;;;;6.70;4.90;;;;;;;11.29;96.86;99270.63;107352;1267;72803;-67
2023/10/25 12:41:05;;;;;;;6.20;5.20;;;;;;;11.25;96.75;99265.84;107365;1267;60574;-67
2023/10/25 12:43:31;;;;;;;5.80;4.90;;;;;;;11.21;96.59;99265.04;107332;1267;60273;-66
2023/10/25 12:45:58;;;;;;;6.10;4.90;;;;;;;11.21;96.60;99263.05;107307;1267;71086;-68
2023/10/25 12:48:25;;;;;;;6.20;4.80;;;;;;;11.22;96.55;99258.98;107553;1267;70381;-68
2023/10/25 12:50:55;;;;;;;6.50;5.00;;;;;;;11.21;96.54;99253.69;108103;1257;72829;-67
2023/10/25 12:53:21;;;;;;;6.10;5.10;;;;;;;11.21;96.41;99247.13;108028;1255;61956;-68
2023/10/25 12:55:48;;;;;;;6.20;4.90;;;;;;;11.21;96.44;99250.83;108072;1257;60080;-69
2023/10/25 12:58:15;;;;;;;6.80;5.20;;;;;;;11.21;96.39;99245.95;108077;1257;72503;-68
2023/10/25 13:00:42;;;;;;;6.40;5.10;;;;;;;11.23;96.35;99245.02;107849;1257;74128;-68
2023/10/25 13:03:12;;;;;;;6.10;4.80;;;;;;;11.30;96.17;99240.24;108351;1256;71961;-68
2023/10/25 13:05:39;;;;;;;6.70;5.40;;;;;;;11.25;96.20;99234.94;108031;1257;61922;-68
2023/10/25 13:08:07;;;;;;;6.50;5.40;;;;;;;11.24;96.21;99232.13;107841;1257;59541;-68
2023/10/25 13:10:34;;;;;;;5.70;5.00;;;;;;;11.20;96.26;99225.28;108149;1257;72852;-69
2023/10/25 13:13:01;;;;;;;6.80;5.60;;;;;;;11.19;96.22;99221.41;108099;1257;71346;-67
2023/10/25 13:15:28;;;;;;;7.50;5.60;;;;;;;11.18;96.29;99218.27;107987;1257;73104;-67
2023/10/25 13:17:55;;;;;;;6.60;5.30;;;;;;;11.17;96.39;99218.55;108135;1258;63066;-67
2023/10/25 13:20:24;;;;;;;6.50;5.40;;;;;;;11.25;96.18;99211.36;108034;1257;59523;-68
2023/10/25 13:22:51;;;;;;;6.10;4.90;;;;;;;11.19;95.98;99210.94;107987;1257;73514;-69
2023/10/25 13:25:18;;;;;;;6.40;5.20;;;;;;;11.31;96.02;99203.77;107993;1257;73698;-67
2023/10/25 13:27:45;;;;;;;6.80;5.00;;;;;;;11.56;95.06;99200.28;107964;1257;73005;-68
2023/10/25 13:30:12;;;;;;;5.60;4.90;;;;;;;11.64;94.31;99195.91;107897;1257;60335;-66
2023/10/25 13:32:39;;;;;;;5.90;4.70;;;;;;;11.42;94.48;99193.75;107950;1257;61580;-68
2023/10/25 13:35:06;;;;;;;5.40;4.40;;;;;;;11.72;94.08;99189.70;107860;1257;73128;-67
2023/10/25 13:37:33;;;;;;;5.60;4.80;;;;;;;11.81;93.26;99183.38;107877;1257;71823;-66
2023/10/25 13:40:00;;;;;;;5.30;4.50;;;;;;;11.82;92.86;99178.80;107884;1257;71771;-67
2023/10/25 13:42:28;;;;;;;5.70;4.40;;;;;;;11.83;92.44;99176.05;107874;1257;62903;-69
2023/10/25 13:44:55;;;;;;;5.20;4.30;;;;;;;11.81;92.35;99170.47;107894;1256;61446;-67
2023/10/25 13:47:22;;;;;;;6.40;4.90;;;;;;;11.77;92.29;99172.27;108007;1256;71956;-69
2023/10/25 13:49:49;;;;;;;5.70;4.20;;;;;;;11.83;92.19;99165.99;107830;1257;72864;-69
2023/10/25 13:52:17;;;;;;;5.50;4.30;;;;;;;11.86;92.01;99160.80;108024;1258;72786;-68
2023/10/25 13:54:44;;;;;;;5.10;4.00;;;;;;;11.90;91.77;99155.97;107952;1257;61646;-67
2023/10/25 13:57:11;;;;;;;4.80;4.00;;;;;;;11.43;92.64;99152.88;107932;1257;60289;-67
2023/10/25 13:59:39;;;;;;;4.60;3.80;;;;;;;11.58;93.20;99152.52;107929;1257;72313;-67
2023/10/25 14:02:08;;;;;;;5.00;4.00;;;;;;;11.81;92.33;99144.52;107898;1256;72290;-67
2023/10/25 14:04:35;;;;;;;6.00;4.80;;;;;;;11.86;91.98;99137.11;107775;1257;72771;-67
2023/10/25 14:07:03;;;;;;;4.20;3.50;;;;;;;11.90;91.75;99134.54;107805;1257;62086;-67
2023/10/25 14:09:30;;;;;;;5.70;4.10;;;;;;;11.93;91.47;99130.37;107891;1257;59573;-68
2023/10/25 14:12:00;;;;;;;5.40;4.30;;;;;;;11.93;91.26;99125.09;107856;1257;73407;-68
2023/10/25 14:14:28;;;;;;;5.50;3.50;;;;;;;11.93;91.20;99126.00;107958;1257;72559;-68
2023/10/25 14:16:55;;;;;;;6.70;4.40;;;;;;;11.94;91.14;99123.52;107787;1257;71818;-68
2023/10/25 14:19:23;;;;;;;5.70;4.60;;;;;;;11.92;91.02;99120.92;107861;1256;61769;-68
2023/10/25 14:21:49;;;;;;;5.80;4.60;;;;;;;11.92;90.83;99119.50;107979;1257;59397;-68
2023/10/25 14:24:16;;;;;;;4.90;4.00;;;;;;;11.89;90.90;99116.02;107776;1257;73104;-66
2023/10/25 14:26:44;;;;;;;4.90;4.00;;;;;;;11.88;90.82;99111.03;107917;1257;72802;-67
2023/10/25 14:29:11;;;;;;;4.60;3.80;;;;;;;11.85;90.81;99101.44;107763;1257;72599;-67
2023/10/25 14:31:38;;;;;;;5.00;3.70;;;;;;;11.83;90.81;99105.26;107824;1257;61919;-67
2023/10/25 14:34:05;;;;;;;4.50;3.90;;;;;;;11.81;90.93;99101.48;107858;1256;60945;-67
2023/10/25 14:36:32;;;;;;;5.20;4.20;;;;;;;11.82;90.90;99098.77;108168;1257;73421;-69
2023/10/25 14:38:59;;;;;;;4.80;3.80;;;;;;;11.82;90.91;99097.23;107849;1257;71918;-67
2023/10/25 14:41:27;;;;;;;5.00;4.10;;;;;;;11.81;90.91;99092.77;107842;1257;72602;-69
2023/10/25 14:43:54;;;;;;;5.20;4.10;;;;;;;11.82;90.99;99086.09;107816;1258;62148;-67
2023/10/25 14:46:24;;;;;;;5.90;4.20;;;;;;;11.82;91.04;99081.37;107973;1257;59034;-68
2023/10/25 14:48:55;;;;;;;6.10;4.60;;;;;;;11.82;90.90;99079.98;107829;1256;73170;-68
2023/10/25 14:51:28;;;;;;;5.80;4.40;;;;;;;11.81;91.12;99075.39;107832;1256;72493;-68
2023/10/25 14:53:55;;;;;;;5.20;3.90;;;;;;;11.83;91.07;99075.90;107992;1257;71695;-67
2023/10/25 14:56:22;;;;;;;4.40;3.40;;;;;;;11.86;91.10;99072.20;107869;1257;63063;-69
2023/10/25 14:58:53;;;;;;;5.00;4.00;;;;;;;11.87;91.16;99067.37;107901;1257;59472;-69
2023/10/25 15:01:21;;;;;;;5.70;4.10;;;;;;;11.86;91.24;99067.83;107940;1257;72156;-68
2023/10/25 15:03:52;;;;;;;5.50;4.10;;;;;;;11.87;91.17;99067.16;107912;1257;72882;-67
2023/10/25 15:06:25;;;;;;;5.60;4.50;;;;;;;11.86;91.12;99060.37;107855;1258;74354;-67
2023/10/25 15:08:53;;;;;;;6.60;4.60;;;;;;;11.87;91.26;99058.23;107866;1256;61908;-68
2023/10/25 15:11:20;;;;;;;5.80;4.50;;;;;;;11.87;91.43;99058.20;108101;1257;59532;-68
2023/10/25 15:13:47;;;;;;;6.60;4.80;;;;;;;11.88;91.17;99054.79;107836;1256;73449;-67
2023/10/25 15:16:14;;;;;;;5.60;4.60;;;;;;;11.87;91.28;99058.48;107883;1257;71990;-69
2023/10/25 15:18:44;;;;;;;5.90;4.20;;;;;;;11.87;91.40;99059.02;107676;1257;72736;-68
2023/10/25 15:21:15;;;;;;;6.00;4.70;;;;;;;11.88;91.43;99057.25;107838;1256;63056;-68
2023/10/25 15:23:42;;;;;;;5.00;4.40;;;;;;;11.88;91.39;99056.02;107908;1256;60398;-68
2023/10/25 15:26:09;;;;;;;5.60;4.50;;;;;;;11.91;91.39;99057.77;107960;1257;73985;-68
2023/10/25 15:28:36;;;;;;;5.40;4.60;;;;;;;11.90;91.53;99051.99;107752;1257;73031;-68
2023/10/25 15:31:08;;;;;;;5.80;4.90;;;;;;;11.90;91.46;99049.22;107779;1258;73653;-68
2023/10/25 15:33:38;;;;;;;6.30;5.00;;;;;;;11.88;91.59;99047.40;107824;1257;60228;-69
2023/10/25 15:36:05;;;;;;;5.70;4.60;;;;;;;11.92;91.59;99048.53;107965;1256;61278;-68
2023/10/25 15:38:35;;;;;;;6.60;5.10;;;;;;;11.94;91.60;99048.92;107888;1257;72075;-69
2023/10/25 15:41:16;;;;;;;6.10;5.30;;;;;;;11.94;91.49;99047.36;107833;1256;70581;-69
2023/10/25 15:43:43;;;;;;;6.00;5.40;;;;;;;11.95;91.56;99044.94;107838;1256;71773;-69
2023/10/25 15:46:10;;;;;;;6.60;5.50;;;;;;;11.95;91.61;99045.15;107767;1257;60027;-68
2023/10/25 15:48:48;;;;;;;5.90;5.00;;;;;;;11.96;91.55;99047.64;107802;1257;60359;-69
2023/10/25 15:51:16;;;;;;;7.30;5.70;;;;;;;11.96;91.63;99049.03;107729;1257;73373;-68
2023/10/25 15:53:44;;;;;;;6.20;5.20;;;;;;;11.99;91.65;99048.77;107798;1257;72904;-68
2023/10/25 15:56:12;;;;;;;6.70;5.70;;;;;;;12.00;91.76;99047.23;107822;1257;73809;-69
2023/10/25 15:58:40;;;;;;;6.80;5.60;;;;;;;12.02;91.82;99044.73;107880;1257;60838;-69
2023/10/25 16:01:16;;;;;;;6.10;5.20;;;;;;;12.02;91.73;99042.97;107884;1257;61326;-69
2023/10/25 16:03:59;;;;;;;5.80;5.20;;;;;;;12.05;91.70;99039.09;107905;1257;73281;-69
2023/10/25 16:06:26;;;;;;;7.10;6.00;;;;;;;12.06;91.67;99034.19;107876;1256;71806;-69
2023/10/25 16:08:54;;;;;;;8.20;6.20;;;;;;;12.07;91.72;99029.36;107733;1260;73022;-70
2023/10/25 16:11:21;;;;;;;7.50;6.10;;;;;;;12.08;91.61;99030.57;107807;1256;62154;-68
2023/10/25 16:13:48;;;;;;;7.80;6.30;;;;;;;12.09;91.85;99030.17;107856;1260;61053;-70
2023/10/25 16:16:15;;;;;;;8.50;6.60;;;;;;;12.08;91.69;99026.96;107888;1256;73132;-70
2023/10/25 16:18:43;;;;;;;7.40;6.00;;;;;;;12.10;91.83;99025.70;107796;1256;74069;-69
2023/10/25 16:21:12;;;;;;;7.60;6.80;;;;;;;12.09;91.67;99024.48;107758;1257;72807;-69
2023/10/25 16:23:41;;;;;;;7.10;6.40;;;;;;;12.10;91.79;99020.16;107740;1260;60743;-69
2023/10/25 16:26:09;;;;;;;6.90;6.00;;;;;;;12.12;91.87;99019.48;107770;1257;61404;-69
2023/10/25 16:28:41;;;;;;;8.30;6.80;;;;;;;12.13;91.90;99018.08;107733;1256;73358;-69
2023/10/25 16:31:08;;;;;;;8.10;6.80;;;;;;;12.14;91.88;99016.65;107852;1256;72832;-69
2023/10/25 16:33:36;;;;;;;8.00;7.20;;;;;;;12.13;91.82;99011.17;92652;1260;10002068;-69
2023/10/25 16:36:05;;;;;;;8.70;7.00;;;;;;;12.11;91.93;99008.90;107665;1257;71381;-69
2023/10/25 16:38:32;;;;;;;8.50;6.70;;;;;;;12.12;91.90;99011.52;107691;1257;72889;-69
2023/10/25 16:41:03;;;;;;;7.80;7.00;;;;;;;12.11;91.85;99006.23;107607;1256;61013;-68
2023/10/25 16:43:30;;;;;;;8.80;6.60;;;;;;;12.11;91.87;99004.63;108635;1259;59583;-69
2023/10/25 16:46:13;;;;;;;9.00;7.40;;;;;;;12.11;91.96;98999.06;107803;1256;73038;-70
2023/10/25 16:48:41;;;;;;;8.40;7.20;;;;;;;12.10;91.92;98993.52;107835;1256;72155;-69
2023/10/25 16:51:19;;;;;;;7.90;6.70;;;;;;;12.11;92.03;98992.42;107779;1256;72340;-70
2023/10/25 16:53:47;;;;;;;8.50;7.50;;;;;;;12.11;92.11;98986.33;107727;1256;62055;-67
2023/10/25 16:56:15;;;;;;;8.70;7.70;;;;;;;12.11;92.13;98981.88;107725;1256;60421;-69
2023/10/25 16:58:43;;;;;;;8.60;7.50;;;;;;;12.13;92.14;98984.98;107863;1256;73561;-68
2023/10/25 17:01:11;;;;;;;8.30;7.40;;;;;;;12.15;92.22;98985.16;107868;1256;73146;-68
2023/10/25 17:03:39;;;;;;;9.00;8.10;;;;;;;12.18;92.23;98985.56;107790;1256;74610;-69
2023/10/25 17:06:07;;;;;;;10.20;7.80;;;;;;;12.22;92.32;98983.88;107810;1256;60856;-69
2023/10/25 17:08:34;;;;;;;9.60;7.10;;;;;;;12.26;92.16;98979.36;108344;1256;60603;-70
2023/10/25 17:11:02;;;;;;;9.80;8.20;;;;;;;12.27;92.14;98976.88;107673;1260;74734;-69
2023/10/25 17:13:29;;;;;;;9.50;8.50;;;;;;;12.27;92.06;98973.06;107766;1256;73971;-69
2023/10/25 17:16:00;;;;;;;9.60;8.40;;;;;;;12.28;92.07;98972.58;107798;1256;71995;-69
2023/10/25 17:18:31;;;;;;;9.80;8.60;;;;;;;12.31;92.19;98966.92;107769;1257;61408;-71
2023/10/25 17:21:00;;;;;;;10.20;8.50;;;;;;;12.33;92.09;98967.63;107756;1256;60551;-69
2023/10/25 17:23:27;;;;;;;11.20;8.70;;;;;;;12.35;92.11;98965.56;107770;1256;74178;-69
2023/10/25 17:25:55;;;;;;;10.20;9.20;;;;;;;12.36;92.00;98967.45;107801;1256;73825;-69
2023/10/25 17:28:23;;;;;;;10.30;8.90;;;;;;;12.37;91.91;98969.02;107803;1256;73980;-69
2023/10/25 17:30:51;;;;;;;11.90;9.90;;;;;;;12.38;91.87;98967.48;107817;1256;60820;-70
2023/10/25 17:33:19;;;;;;;10.70;9.20;;;;;;;12.42;92.09;98967.61;107851;1256;61093;-70
2023/10/25 17:35:49;;;;;;;11.50;9.60;;;;;;;12.43;91.96;98968.21;107748;1256;74105;-70
2023/10/25 17:38:17;;;;;;;12.30;10.20;;;;;;;12.42;91.90;98962.18;107749;1256;73930;-70
2023/10/25 17:40:51;;;;;;;12.50;10.40;;;;;;;12.44;91.89;98961.73;107778;1260;73864;-70
2023/10/25 17:43:18;;;;;;;13.70;9.80;;;;;;;12.43;91.79;98959.48;107740;1256;61906;-70
2023/10/25 17:45:50;;;;;;;12.10;9.90;;;;;;;12.42;91.74;98956.08;107759;1256;60070;-70
2023/10/25 17:48:37;;;;;;;12.00;10.10;;;;;;;12.41;91.82;98952.58;107793;1256;72478;-70
2023/10/25 17:51:08;;;;;;;12.70;11.40;;;;;;;12.42;91.76;98952.77;107743;1256;74092;-70
2023/10/25 17:53:35;;;;;;;13.60;11.50;;;;;;;12.42;91.81;98947.82;107876;1256;72942;-69
2023/10/25 17:56:03;;;;;;;15.10;11.50;;;;;;;12.44;91.82;98948.13;107780;1256;63212;-68
2023/10/25 17:58:31;;;;;;;14.70;11.90;;;;;;;12.43;91.82;98951.45;107771;1256;61285;-68
2023/10/25 18:00:57;;;;;;;14.80;11.90;;;;;;;12.41;91.71;98948.98;107793;1256;74841;-69
2023/10/25 18:03:24;;;;;;;14.80;12.80;;;;;;;12.40;91.69;98950.15;107730;1256;74148;-69
2023/10/25 18:05:51;;;;;;;13.90;11.90;;;;;;;12.41;91.91;98951.64;107727;1256;71839;-69
2023/10/25 18:08:23;;;;;;;14.20;12.40;;;;;;;12.43;91.83;98955.52;107828;1256;62035;-69
2023/10/25 18:10:52;;;;;;;15.10;12.60;;;;;;;12.43;91.69;98948.92;107856;1256;60338;-69
2023/10/25 18:13:19;;;;;;;14.40;12.30;;;;;;;12.43;91.81;98947.70;107774;1257;74971;-69
2023/10/25 18:15:46;;;;;;;14.50;13.00;;;;;;;12.44;91.84;98946.30;107691;1256;72887;-69
2023/10/25 18:18:13;;;;;;;13.80;11.70;;;;;;;12.44;91.74;98947.58;107728;1256;73956;-70
2023/10/25 18:20:40;;;;;;;14.80;11.80;;;;;;;12.43;91.75;98945.08;107723;1256;62590;-69
2023/10/25 18:23:08;;;;;;;17.10;13.20;;;;;;;12.43;91.90;98940.73;107727;1256;60425;-70
2023/10/25 18:25:35;;;;;;;15.80;13.00;;;;;;;12.46;91.83;98941.22;107629;1260;74339;-69
2023/10/25 18:28:02;;;;;;;15.20;13.60;;;;;;;12.47;91.74;98938.99;107731;1256;72884;-69
2023/10/25 18:30:30;;;;;;;15.70;13.10;;;;;;;12.47;91.75;98936.36;107815;1256;74016;-70
2023/10/25 18:33:18;;;;;;;16.70;14.30;;;;;;;12.47;91.75;98935.08;107729;1256;61913;-70
2023/10/25 18:35:47;;;;;;;15.80;12.80;;;;;;;12.49;91.84;98938.18;107740;1256;60402;-70
2023/10/25 18:38:15;;;;;;;14.90;13.20;;;;;;;12.51;91.92;98939.33;107846;1256;73204;-69
2023/10/25 18:40:55;;;;;;;15.80;13.40;;;;;;;12.50;91.78;98941.80;107843;1256;72957;-70
2023/10/25 18:43:23;;;;;;;16.80;13.80;;;;;;;12.50;91.76;98938.91;107782;1259;72349;-69
2023/10/25 18:45:54;;;;;;;19.70;14.30;;;;;;;12.50;91.90;98935.79;107906;1255;60616;-68
2023/10/25 18:48:22;;;;;;;15.60;13.90;;;;;;;12.51;91.79;98932.71;108135;1256;61321;-70
2023/10/25 18:50:49;;;;;;;16.50;14.10;;;;;;;12.51;91.81;98931.17;107792;1256;74190;-69
2023/10/25 18:53:16;;;;;;;17.60;14.10;;;;;;;12.53;91.91;98932.24;107784;1256;73886;-70
2023/10/25 18:55:46;;;;;;;17.60;14.80;;;;;;;12.56;91.83;98931.23;107677;1256;72648;-70
2023/10/25 18:58:16;;;;;;;16.30;14.00;;;;;;;12.57;91.89;98928.01;107665;1259;62205;-70
2023/10/25 19:00:45;;;;;;;18.80;15.00;;;;;;;12.58;91.84;98929.69;109085;1256;59102;-70
2023/10/25 19:03:14;;;;;;;20.90;16.10;;;;;;;12.59;91.78;98922.05;108329;1256;75407;-70
2023/10/25 19:05:41;;;;;;;17.70;14.80;;;;;;;12.58;91.80;98919.63;107823;1256;73530;-69
2023/10/25 19:08:31;;;;;;;22.40;17.20;;;;;;;12.57;91.70;98921.80;107575;1256;74389;-68
2023/10/25 19:11:05;;;;;;;18.70;15.20;;;;;;;12.56;91.69;98919.68;107807;1257;62339;-70
2023/10/25 19:13:32;;;;;;;18.00;16.10;;;;;;;12.56;91.71;98919.08;107878;1256;61424;-68
2023/10/25 19:16:00;;;;;;;19.80;15.50;;;;;;;12.56;91.74;98920.62;108002;1256;73453;-70
2023/10/25 19:18:29;;;;;;;20.70;16.20;;;;;;;12.56;91.67;98920.68;108011;1256;72275;-68
2023/10/25 19:20:56;;;;;;;21.40;17.90;;;;;;;12.57;91.68;98922.28;108014;1256;71501;-70
2023/10/25 19:23:23;;;;;;;20.10;16.40;;;;;;;12.60;91.83;98923.91;107986;1256;62538;-72
2023/10/25 19:25:50;;;;;;;18.50;15.30;;;;;;;12.62;91.71;98922.45;107967;1256;60463;-70
2023/10/25 19:28:17;;;;;;;18.60;16.60;;;;;;;12.63;91.79;98921.35;107972;1256;74968;-68
2023/10/25 19:30:47;;;;;;;20.70;17.70;;;;;;;12.65;91.82;98922.71;107799;1256;73211;-69
2023/10/25 19:33:15;;;;;;;19.60;17.10;;;;;;;12.67;91.84;98920.54;107934;1257;72908;-68
2023/10/25 19:35:42;;;;;;;21.60;17.50;;;;;;;12.68;91.74;98916.23;107968;1256;62405;-68
2023/10/25 19:38:09;;;;;;;19.00;16.70;;;;;;;12.67;91.70;98915.80;107931;1256;60401;-69
2023/10/25 19:40:36;;;;;;;20.30;17.40;;;;;;;12.66;91.82;98914.73;107931;1256;74876;-68
2023/10/25 19:43:07;;;;;;;21.20;16.40;;;;;;;12.66;91.73;98912.12;107897;1256;72816;-68
2023/10/25 19:45:43;;;;;;;19.00;17.00;;;;;;;12.65;91.81;98912.85;107918;1260;72698;-68
2023/10/25 19:48:10;;;;;;;20.30;17.40;;;;;;;12.64;91.71;98904.09;107930;1256;62311;-68
2023/10/25 19:50:37;;;;;;;20.10;18.00;;;;;;;12.64;91.75;98906.86;107896;1256;61014;-68
2023/10/25 19:53:04;;;;;;;18.90;16.80;;;;;;;12.67;91.84;98904.75;107809;1256;75213;-69
2023/10/25 19:55:31;;;;;;;19.50;17.50;;;;;;;12.68;91.94;98907.12;107902;1256;73120;-68
2023/10/25 19:57:58;;;;;;;20.00;17.30;;;;;;;12.70;91.79;98902.44;107915;1260;72699;-69
2023/10/25 20:00:25;;;;;;;19.20;17.20;;;;;;;12.71;91.81;98905.83;107868;1256;61767;-69
2023/10/25 20:02:52;;;;;;;20.10;17.70;;;;;;;12.72;91.77;98909.87;108033;1256;60375;-68
2023/10/25 20:05:20;;;;;;;20.20;18.00;;;;;;;12.74;91.76;98912.12;107973;1257;74988;-68
2023/10/25 20:07:47;;;;;;;19.40;17.30;;;;;;;12.77;91.69;98911.64;107931;1256;73977;-68
2023/10/25 20:10:14;;;;;;;19.30;17.20;;;;;;;12.81;91.71;98910.67;107789;1256;72375;-69
2023/10/25 20:12:42;;;;;;;19.80;17.70;;;;;;;12.85;91.71;98902.02;107896;1256;63025;-68
2023/10/25 20:15:10;;;;;;;19.60;17.30;;;;;;;12.90;91.75;98897.56;107913;1256;60370;-68
2023/10/25 20:17:37;;;;;;;18.80;16.90;;;;;;;12.91;91.43;98896.09;107961;1257;73679;-68
2023/10/25 20:20:04;;;;;;;19.30;17.20;;;;;;;12.90;91.32;98896.17;107877;1256;73853;-68
2023/10/25 20:22:34;;;;;;;19.10;17.10;;;;;;;12.88;91.31;98893.73;107899;1256;73929;-68
2023/10/25 20:25:03;;;;;;;21.00;18.00;;;;;;;12.85;91.24;98893.14;107964;1256;60398;-67
2023/10/25 20:27:31;;;;;;;19.00;16.90;;;;;;;12.82;91.24;98890.77;107986;1259;60432;-68
2023/10/25 20:29:59;;;;;;;19.50;17.40;;;;;;;12.79;91.23;98892.23;107880;1256;72579;-67
2023/10/25 20:32:30;;;;;;;18.60;15.70;;;;;;;12.78;91.16;98895.87;107957;1256;72880;-67
2023/10/25 20:34:58;;;;;;;18.60;16.60;;;;;;;12.80;91.39;98894.80;107946;1256;71658;-67
2023/10/25 20:37:24;;;;;;;19.00;16.80;;;;;;;12.80;91.23;98885.94;107961;1256;61739;-67
2023/10/25 20:39:51;;;;;;;19.30;16.80;;;;;;;12.81;91.29;98887.89;107962;1256;60717;-66
2023/10/25 20:42:18;;;;;;;17.60;15.70;;;;;;;12.85;91.35;98884.00;107875;1255;73656;-66
2023/10/25 20:44:45;;;;;;;20.50;17.30;;;;;;;12.86;91.32;98873.48;107945;1256;71271;-67
2023/10/25 20:47:12;;;;;;;18.50;16.60;;;;;;;12.86;91.22;98868.45;107924;1256;72581;-67
2023/10/25 20:49:39;;;;;;;18.30;16.40;;;;;;;12.84;91.20;98867.82;107944;1256;61976;-68
2023/10/25 20:52:06;;;;;;;19.10;16.80;;;;;;;12.82;91.28;98866.42;107959;1256;60352;-68
2023/10/25 20:54:32;;;;;;;18.40;16.60;;;;;;;12.82;91.22;98862.90;108160;1256;72295;-68
2023/10/25 20:56:59;;;;;;;17.80;16.10;;;;;;;12.82;91.35;98862.14;107853;1256;72612;-68
2023/10/25 20:59:26;;;;;;;19.60;17.60;;;;;;;12.83;91.22;98867.60;107906;1256;72559;-68
2023/10/25 21:01:52;;;;;;;19.00;17.00;;;;;;;12.86;91.18;98869.88;107955;1256;61582;-68
2023/10/25 21:04:19;;;;;;;19.50;17.40;;;;;;;12.90;91.27;98872.25;108018;1257;60315;-68
2023/10/25 21:06:46;;;;;;;19.30;17.30;;;;;;;12.91;91.28;98865.84;108014;1256;72856;-68
2023/10/25 21:09:16;;;;;;;18.80;16.80;;;;;;;12.91;91.32;98862.16;107918;1256;72538;-68
2023/10/25 21:11:43;;;;;;;19.30;17.40;;;;;;;12.93;91.39;98856.48;107931;1256;72481;-68
2023/10/25 21:14:10;;;;;;;18.40;16.50;;;;;;;12.89;91.38;98849.76;107876;1256;61731;-67
2023/10/25 21:16:37;;;;;;;18.80;16.70;;;;;;;12.87;91.24;98847.65;107947;1256;60405;-67
2023/10/25 21:19:04;;;;;;;18.30;16.40;;;;;;;12.84;91.31;98845.61;108107;1256;73875;-68
2023/10/25 21:21:32;;;;;;;18.50;16.60;;;;;;;12.81;91.31;98839.29;107948;1256;70301;-67
2023/10/25 21:24:00;;;;;;;18.20;16.20;;;;;;;12.79;91.29;98839.85;107840;1256;72669;-68
2023/10/25 21:26:26;;;;;;;18.70;16.80;;;;;;;12.80;91.42;98841.27;107894;1256;61872;-68
2023/10/25 21:28:53;;;;;;;18.50;16.60;;;;;;;12.82;91.46;98843.83;107917;1256;60744;-68
2023/10/25 21:31:22;;;;;;;18.10;16.20;;;;;;;12.82;91.39;98841.68;107936;1256;74141;-68
2023/10/25 21:33:49;;;;;;;18.90;17.00;;;;;;;12.83;91.41;98841.56;107961;1257;71156;-68
2023/10/25 21:36:16;;;;;;;18.80;16.80;;;;;;;12.86;91.52;98840.80;107910;1260;72645;-68
2023/10/25 21:38:43;;;;;;;16.70;15.00;;;;;;;12.89;91.43;98834.27;107954;1256;61734;-68
2023/10/25 21:41:13;;;;;;;17.90;16.00;;;;;;;12.88;91.38;98829.94;107714;1256;60476;-67
2023/10/25 21:43:42;;;;;;;17.30;15.50;;;;;;;12.86;91.33;98835.73;107992;1256;73858;-69
2023/10/25 21:46:09;;;;;;;17.10;15.40;;;;;;;12.89;91.44;98842.92;108023;1256;72866;-68
2023/10/25 21:48:35;;;;;;;16.80;15.10;;;;;;;12.93;91.40;98838.95;107964;1257;71259;-68
2023/10/25 21:51:03;;;;;;;17.20;15.30;;;;;;;12.99;91.41;98842.73;107912;1256;60837;-68
2023/10/25 21:53:32;;;;;;;17.30;15.40;;;;;;;13.04;91.47;98847.67;107942;1256;60454;-70
2023/10/25 21:56:01;;;;;;;16.80;15.00;;;;;;;13.08;91.35;98857.70;107945;1256;72497;-70
2023/10/25 21:58:47;;;;;;;16.90;15.20;;;;;;;13.03;91.11;98869.61;107846;1256;71634;-68
2023/10/25 22:01:34;;;;;;;20.40;18.20;;;;;;;13.01;91.22;98881.27;108028;1256;72728;-68
2023/10/25 22:04:01;;;;;;;18.10;16.30;;;;;;;13.00;91.29;98883.23;107945;1256;61816;-67
2023/10/25 22:06:30;;;;;;;18.00;16.20;;;;;;;13.02;91.30;98887.86;108067;1256;60467;-68
2023/10/25 22:08:57;;;;;;;19.90;16.40;;;;;;;13.07;91.39;98890.05;107944;1256;73599;-67
2023/10/25 22:11:24;;;;;;;17.90;16.00;;;;;;;13.08;91.34;98891.71;108073;1256;72560;-68
2023/10/25 22:13:51;;;;;;;17.10;15.20;;;;;;;13.13;91.47;98889.42;107959;1256;72564;-69
2023/10/25 22:16:18;;;;;;;18.20;15.80;;;;;;;13.19;91.49;98887.37;107959;1256;60436;-69
2023/10/25 22:18:44;;;;;;;20.70;17.20;;;;;;;13.21;91.32;98883.31;108020;1256;60345;-67
2023/10/25 22:21:11;;;;;;;18.50;15.60;;;;;;;13.23;91.20;98883.35;107876;1256;73627;-66
2023/10/25 22:23:38;;;;;;;18.70;16.60;;;;;;;13.25;91.20;98884.47;107983;1257;72613;-68
2023/10/25 22:26:04;;;;;;;17.80;15.90;;;;;;;13.30;91.22;98885.92;107979;1256;70986;-67
2023/10/25 22:28:31;;;;;;;18.40;16.40;;;;;;;13.35;91.05;98885.83;107958;1256;61705;-68
2023/10/25 22:31:02;;;;;;;21.00;17.00;;;;;;;13.41;91.14;98887.91;108007;1256;60407;-68
2023/10/25 22:33:32;;;;;;;20.00;14.80;;;;;;;13.46;91.10;98889.67;107958;1256;72568;-68
2023/10/25 22:36:04;;;;;;;19.80;16.20;;;;;;;13.51;91.07;98886.77;107992;1256;73085;-69
2023/10/25 22:38:50;;;;;;;19.80;17.50;;;;;;;13.55;91.01;98879.34;107881;1256;72659;-68
2023/10/25 22:41:17;;;;;;;21.80;17.00;;;;;;;13.58;90.85;98876.03;107990;1256;60887;-69
2023/10/25 22:43:53;;;;;;;19.40;17.20;;;;;;;13.61;90.71;98878.15;107977;1257;60531;-68
2023/10/25 22:46:20;;;;;;;22.20;17.60;;;;;;;13.62;90.58;98880.00;108035;1256;73883;-68
2023/10/25 22:48:47;;;;;;;21.70;17.40;;;;;;;13.59;90.51;98874.69;107998;1256;72803;-69
2023/10/25 22:51:14;;;;;;;23.50;18.20;;;;;;;13.60;90.47;98877.33;108023;1260;72636;-69
2023/10/25 22:53:41;;;;;;;23.90;19.00;;;;;;;13.63;90.34;98874.92;108023;1256;61873;-69
2023/10/25 22:56:10;;;;;;;26.30;19.50;;;;;;;13.64;90.28;98879.66;107974;1256;60345;-69
2023/10/25 22:58:36;;;;;;;24.80;19.80;;;;;;;13.67;90.30;98880.31;107962;1260;73731;-69
2023/10/25 23:01:07;;;;;;;26.50;20.70;;;;;;;13.71;90.27;98878.80;108005;1256;72603;-69
2023/10/25 23:03:34;;;;;;;26.70;18.60;;;;;;;13.75;90.21;98882.09;107710;1256;71337;-69
2023/10/25 23:06:00;;;;;;;26.50;19.60;;;;;;;13.75;90.04;98878.11;107935;1256;60997;-69
2023/10/25 23:08:28;;;;;;;27.90;18.80;;;;;;;13.71;89.79;98884.78;108018;1261;60782;-69
2023/10/25 23:10:54;;;;;;;24.60;18.50;;;;;;;13.68;89.71;98888.16;107984;1256;74224;-69
2023/10/25 23:13:21;;;;;;;22.60;18.40;;;;;;;13.68;89.79;98890.59;107952;1256;72516;-69
2023/10/25 23:15:48;;;;;;;19.40;15.70;;;;;;;13.66;89.65;98886.15;107930;1256;72465;-69
2023/10/25 23:18:15;;;;;;;19.80;17.10;;;;;;;13.63;89.50;98885.73;107976;1256;60824;-69
2023/10/25 23:20:49;;;;;;;22.50;16.60;;;;;;;13.57;89.44;98893.99;107975;1260;60323;-69
2023/10/25 23:23:16;;;;;;;23.30;18.30;;;;;;;13.55;89.50;98896.67;107958;1256;73741;-69
2023/10/25 23:25:42;;;;;;;23.30;17.00;;;;;;;13.56;89.63;98895.63;108009;1256;72569;-68
2023/10/25 23:28:09;;;;;;;20.80;17.00;;;;;;;13.59;89.73;98899.68;107973;1260;72582;-70
2023/10/25 23:30:36;;;;;;;20.80;16.40;;;;;;;13.63;89.71;98910.18;107941;1256;61836;-69
2023/10/25 23:33:03;;;;;;;20.40;16.60;;;;;;;13.64;89.81;98909.67;107992;1256;61027;-69
2023/10/25 23:35:30;;;;;;;20.40;16.50;;;;;;;13.65;89.77;98911.13;107925;1256;73534;-69
2023/10/25 23:37:57;;;;;;;19.70;16.40;;;;;;;13.68;89.98;98904.36;108038;1256;72819;-69
2023/10/25 23:40:23;;;;;;;20.70;17.30;;;;;;;13.73;89.97;98902.96;107894;1256;71370;-69
2023/10/25 23:42:50;;;;;;;18.00;15.30;;;;;;;13.76;89.89;98895.58;108034;1256;61637;-69
2023/10/25 23:45:17;;;;;;;18.90;16.00;;;;;;;13.80;89.96;98899.70;107939;1256;59216;-69
2023/10/25 23:47:44;;;;;;;19.40;16.20;;;;;;;13.81;89.80;98896.17;107995;1256;73981;-69